Погода в Центре ЕТР. Май 2012 года.

Полезные ссылки:
Метеоцентр.Азия - наш сайт с высокодетализированными прогнозами погоды по пунктам России и мира
Облегчённая версия Метеоклуба (для смартфонов)

Погода в Центре ЕТР. Май 2012 года.

Сейчас в Метеоклубе:
Участников - 3 [ Konst_S, Adrenalines, groza_1 ]
Максимальное одновременное количество посетителей: 3 [18 Июл 2019 20:34]
Гостей - 0 / Участников - 3

 - Начало - Ответить - Статистика - Регистрация - Поиск -
МЕТЕОКЛУБ : независимое сообщество любителей метеорологии (Европа и Азия) : ФОРУМ О ПОГОДЕ И ПРИРОДЕ / Погода в центре ЕТР / Погода в Центре ЕТР. Май 2012 года.
. 1 . 2 . 3 . 4 . 5 . 6 . 7 . 8 . 9 . 10 ... 51 . 52 . >>
Автор Сообщение
LESS
Участник
Письмо
Приокский лесс на юге МО
# Дата: 30 Апр 2012 23:36


Плавно переходим в эту тему. ~

LESS
Участник
Письмо
Приокский лесс на юге МО
# Дата: 1 Май 2012 02:12


Какой-то фокус. Сейчас снова прогулялся по полю. Не холодно (и уж точно не морозно), сухо, росы нет. И тут смотрю данные по соседнему "Домодедово":

UUDD 302200Z 00000MPS CAVOK 01/M00 Q1019 NOSIG=
UUDD 302130Z VRB01MPS CAVOK 01/M00 Q1019 NOSIG=
UUDD 302100Z 00000MPS CAVOK 02/M00 Q1019 NOSIG=
UUDD 302030Z 00000MPS CAVOK 03/M00 Q1019 NOSIG=
UUDD 302000Z 28001MPS CAVOK 03/00 Q1019 NOSIG=
UUDD 301930Z 11001MPS CAVOK 04/M00 Q1020 NOSIG=

LESS
Участник
Письмо
Приокский лесс на юге МО
# Дата: 1 Май 2012 02:16


Посмотрел рекорд по Тмин для Москвы: вся последняя неделя апреля безоговорочно закреплена за далёким 1884-м годом. Т.е. все последние 7 дней апреля имеют суточные календарные рекорды Тмин в 1884-м году.

Ох, что же за год был. МЛП в миниатюре прям какое-то...

LESS
Участник
Письмо
Приокский лесс на юге МО
# Дата: 1 Май 2012 03:27


По нулям:

UUDD 302300Z 00000MPS CAVOK 00/M01 Q1019 NOSIG=

Не май месяц. Пойду проверю, появилась ли в поле роса на траве.

LESS
Участник
Письмо
Приокский лесс на юге МО
# Дата: 1 Май 2012 04:43


Да, на улице дубак, ноль и мёртвый штиль. ~

Для начала мая нормально.

ded
Участник
Письмо
наро-фоМИНСК
# Дата: 1 Май 2012 06:35


LESS Надо иней проверять :) На 4 утра в Домодедово и Черустях минус в воздухе.

LESS
Участник
Письмо
Приокский лесс на юге МО
# Дата: 1 Май 2012 06:46


ded

Роса. Только роса.

LESS
Участник
Письмо
Приокский лесс на юге МО
# Дата: 1 Май 2012 06:53


У нас божественной красоты рассвет! На светло-синем небе брызгами идущих с запада на восток потоков-лучей разбросаны барашки перистых облаков. Травы утопают в росах. Роща на пригорке уже вся зелёная - низ её сияет ярко-белым светом берёзовых стволов в утренней заре, а верх подёрнут нежно-зелёной дымкой. Мир окрашивается в красноватые тона в лучах восходящего Солнца. Воздух чист, свеж и наполнен весенними запахами. Чайки с криком парят высоко в воздухе, иногда опускаясь до самой земли. Блаженство уединения с родным краем, таинство прикосновения к прекрасному...

LESS
Участник
Письмо
Приокский лесс на юге МО
# Дата: 1 Май 2012 07:02


ded

Да, там, в "Домодедово" май начался с заморозка в воздухе:

UUDD 302330Z 15001MPS CAVOK 00/M01 Q1019 NOSIG=
UUDD 302300Z 00000MPS CAVOK 00/M01 Q1019 NOSIG=
UUDD 302230Z 00000MPS CAVOK 01/M01 Q1019 NOSIG=
UUDD 302200Z 00000MPS CAVOK 01/M00 Q1019 NOSIG=
UUDD 302130Z VRB01MPS CAVOK 01/M00 Q1019 NOSIG=
UUDD 302100Z 00000MPS CAVOK 02/M00 Q1019 NOSIG=
UUDD 010230Z 20002MPS 150V270 CAVOK 00/M01 Q1017 NOSIG=
UUDD 010200Z 19002MPS 160V240 CAVOK M00/M01 Q1017 NOSIG=
UUDD 010130Z VRB01MPS CAVOK M01/M01 Q1018 NOSIG=
UUDD 010100Z 20001MPS CAVOK M00/M01 Q1018 NOSIG=
UUDD 010030Z 17002MPS CAVOK M00/M01 Q1018 NOSIG=
UUDD 010000Z 24001MPS CAVOK M00/M01 Q1019 NOSIG=

LITE33
Участник
Письмо
Сергей, Александров, Владимирская область
# Дата: 1 Май 2012 08:15


А у меня Тмин была в начале ночи - +3,5 , а потом начало теплеть, сейчас +5,5 . Наползает облачность, наверное днём будет темно и прохладно.

Konst_S
Участник
Письмо
Дом - Москва, Коньково (ЮЗАО), работа - ВДНХ, 1,5 км от 27612
# Дата: 1 Май 2012 15:17


Тем временем на ВВЦ уже 18,5! Вот что значит летнее солнце! Сколько же сегодня Т850? И какую имеем дельту?

MrX
Участник
Письмо
СЗФО
# Дата: 1 Май 2012 15:25


Konst_S

Вряд ли больше +15 дельта.

Balin
Участник
Письмо
Люберцы. МО
# Дата: 1 Май 2012 15:33 - Поправил: Balin


Сколько же сегодня Т850? И какую имеем дельту?
Konst_S

По ГФС +4, по УКМО +3 (утром было 0...+1). Они давали в прогнозе приземные +16...+18 днем.
Зато вечером и ночью падение Т850 до -3...-4 и вероятные заморозки по области. Так что не обольщайтесь. :)

Ilgiz
Участник
Письмо
Москва (Измайлово, Кунцево), Балашиха (Железнодорожный)
# Дата: 1 Май 2012 16:15


Какие-то двойственные погодные ощущения были сегодня в центре Москвы в околоастрополуденные часы. Когда светит Солнце - нереальное пекло (от которого тепловой удар запросто можно схватить), стоит ему скрыться за облаком - становится зябко.

LESS
Участник
Письмо
Приокский лесс на юге МО
# Дата: 1 Май 2012 16:30


Ilgiz

Наблюдал такую погоду неоднократно в первой декаде июля в наших краях - как раз заток более холодной ВМ и всё тому подобное.

LESS
Участник
Письмо
Приокский лесс на юге МО
# Дата: 1 Май 2012 16:46


На 16 МСК в Серпухове и в Можайске Твозд +19* С. Обычный первомай.

Damien_Zhar
Участник
Письмо
Лобня
# Дата: 1 Май 2012 18:02


В Долгопрудном на 1800 Температура +15 градусов, давление снижается прилично и уже 739 мм рт ст. Переменная облачность, в основном кучевые. Ветер очень сильный и довольно прохладный, в порывах до 20 м/с.

Konstantin
Участник
Письмо
Москва, ЮЗАО
# Дата: 1 Май 2012 18:52


Damien_Zhar, с 17-30 давление перешло на рост. Холодный фронт, резкое понижение температуры.

whirlwind
Участник
Письмо
Uzbekistan-Tashkent
# Дата: 1 Май 2012 18:52


Сильный ветер около 20м/с, некоторые порывы может и сильнее. Облаков стало больше, примерно на 8 баллов

Konstantin
Участник
Письмо
Москва, ЮЗАО
# Дата: 1 Май 2012 18:54


LESS
В 1884 апрель был зимним месяцем, даже последняя декада -0,3°С.

Konstantin
Участник
Письмо
Москва, ЮЗАО
# Дата: 1 Май 2012 19:00


У соседнего дома от порыва ветра большущий тополь пополам сломался.

Damien_Zhar
Участник
Письмо
Лобня
# Дата: 1 Май 2012 19:19 - Поправил: Damien_Zhar


Konstantin у кого как. Только к 1900 у нас температура упала до +11 градусов после ХФ. Давление же подскочило до 742 мм рт ст. Ветер чуть ослаб, но всё равно очень сильный. Наша берёза ещё держится, но вот металлоцерепицу на соседском гараже снесло с болтов и металлической проволоки (ржавой) начисто на наш участок.

artur
Участник
Письмо
наверное, Чукотка. или Таймыр
# Дата: 1 Май 2012 19:41


Шквалистый ветер добрался и до нас, порывы превышают 15 м/с, дождь то усиливается, то ослабевает, один раз мелькнуло и продолжительно загремело, температура за полчаса упала с +11 до +8.

aleksei nikolaew
Участник
Письмо
забанен 14.06.16
# Дата: 1 Май 2012 20:10


у меня возле дома сейчас тополь упал

Doof
Участник
Письмо
Москва. ЮБутово
# Дата: 1 Май 2012 20:11


artur
Шквалистый ветер добрался

В Москве и окрестностях ветер разыгрался не на шутку!

UUWW 011530Z 34014G19MPS 9999 SCT046 BKN100 12/M03 Q1008 WS RWY01 01000070 NOSIG=
UUEE 011530Z 34013G20MPS CAVOK 11/M05 Q1009 NOSIG RMK 32012G16MPS=
UUDD 011530Z 34013G19MPS 9999 BKN050CB 14/M03 Q1007 WS RWY32R NOSIG=

Средняя скорость до 14 м/с, порывы до 20 м/с

Bouira10
Участник
Письмо
# Дата: 1 Май 2012 20:13


У меня сильный ветер дует уже около часа,ветки ломает.

artur
Участник
Письмо
наверное, Чукотка. или Таймыр
# Дата: 1 Май 2012 20:14 - Поправил: artur


Doof
И у нас ветер не унимается, и холода крепчают - сейчас +6.5, того и гляди снег пойдёт. А у вас, смотрю, градуса на 3 теплее. По МРЛ грозы в районе Горького и Дзержинска. На 19 часов выпало 1 мм осадков, и после выпало где-то 3-5 мм, образовались большие лужи. Так и превратимся в болото скоро, интересно, как там река, сегодня пик половодья.

artur
Участник
Письмо
наверное, Чукотка. или Таймыр
# Дата: 1 Май 2012 20:28


Ветер немного ослаб, но пока сильный, на севере появилась оранжевая полоска просвета, температура рухнула до +5.7!

Doof
Участник
Письмо
Москва. ЮБутово
# Дата: 1 Май 2012 20:35


artur

Температура стремительно падает. Днём было почти +20°, а сейчас всего +11°. Под утро можем и минус в воздухе словить при такой точке росы, если ветер стихнет и облачность разойдётся.

whirlwind
Участник
Письмо
Uzbekistan-Tashkent
# Дата: 1 Май 2012 20:45


Облачность уходит на юг, светит заходящее солнце, ветер стих примерно до 10-15м/с в порывах.

. 1 . 2 . 3 . 4 . 5 . 6 . 7 . 8 . 9 . 10 ... 51 . 52 . >>
Ваш ответ

          Отменить *Что это?

 » Логин  » Пароль